• Join FlightAware (Why Join?)
  • Login
  • US Flag 
10:32PM EDT


 

Airport Tracker/Info


-or-


 

Live Flight TrackerFlight Track Log ✈ N3545U ✈ 02-May-2013 ✈ KDFI - KPOV

Flight Track Log - Related Links

Times and Time Zones

All times are in EDT time to prevent confusion due to time zone crossing. See the N3545U flight status page for this flight to view local times or setup timezone preferences in your user account.

Time Position Orientation Groundspeed Altitude Reporting Facility
EDT Latitude Longitude Course Direction KTS MPH feet Rate Location/Type
01:53PM 41.3276 -84.0739 92° East  Level Estimated
01:54PM 41.3256 -84.0147 93° East  Level FlightAware Approximate
01:55PM 41.3236 -83.9556 93° East  Level FlightAware Approximate
01:56PM 41.3215 -83.8965 93° East  Level FlightAware Approximate
01:57PM 41.3194 -83.8374 93° East  Level FlightAware Approximate
01:58PM 41.3172 -83.7782 93° East  Level FlightAware Approximate
01:59PM 41.3151 -83.7191 93° East  Level FlightAware Approximate
02:00PM 41.3129 -83.6600 93° East  Level FlightAware Approximate
02:01PM 41.3106 -83.6009 93° East  Level FlightAware Approximate
02:02PM 41.3084 -83.5418 93° East  Level FlightAware Approximate
02:03PM 41.3061 -83.4827 93° East  Level FlightAware Approximate
02:04PM 41.3038 -83.4236 93° East  Level FlightAware Approximate
02:05PM 41.3014 -83.3645 93° East  Level FlightAware Approximate
02:06PM 41.2990 -83.3055 93° East  Level FlightAware Approximate
02:07PM 41.2966 -83.2464 93° East  Level FlightAware Approximate
02:08PM 41.2942 -83.1873 93° East  Level FlightAware Approximate
02:09PM 41.2917 -83.1282 93° East  Level FlightAware Approximate
02:09PM 41.2836 -82.9153 93° East 173 199 7,000  Level Cleveland Center
02:10PM 41.2892 -83.0692 93° East  Level FlightAware Approximate
02:10PM 41.2825 -82.8711 92° East 168 193 7,000  Level Cleveland Center
02:11PM 41.2867 -83.0101 93° East  Level FlightAware Approximate
02:11PM 41.2797 -82.7964 93° East 180 207 6,500  Level Cleveland Center
02:12PM 41.2841 -82.9510 93° East  Level FlightAware Approximate
02:12PM 41.2769 -82.7300 93° East 185 213 6,100  Level Cleveland Center
02:13PM 41.2820 -82.8920 93° East  Level Estimated
02:13PM 41.2736 -82.6744 95° East 182 209 5,600  Level Cleveland Center
02:14PM 41.2797 -82.8329 93° East  Level FlightAware Approximate
02:14PM 41.2708 -82.6053 93° East 184 212 5,000  Level Cleveland Center
02:15PM 41.2572 -82.5414 106° East 181 208 4,400 -540 Descending Cleveland Center
02:16PM 41.2458 -82.4775 103° East 176 203 4,000 -540 Descending Cleveland Center
02:17PM 41.2344 -82.4139 103° East 175 201 3,400 -540 Descending Cleveland Center
02:18PM 41.2208 -82.3472 105° East 177 204 3,000 -180 Descending Cleveland Center
02:19PM 41.2133 -82.2917 100° East 161 185 3,100  Climbing Cleveland Center
02:20PM 41.2125 -82.2144 91° East 165 190 3,000  Descending Cleveland Center
02:21PM 41.2133 -82.1536 89° East 163 188 3,100  Climbing Cleveland Center
02:22PM 41.2142 -82.0875 89° East 157 181 3,100 -60 Level Cleveland Center
02:23PM 41.2108 -82.0294 94° East 163 188 3,000 -60 Descending Cleveland Center
02:25PM 41.2100 -81.9108 90° East 175 201 3,000  Level Cleveland Center
02:26PM 41.2086 -81.8500 92° East 158 182 3,100 60 Climbing Cleveland Center
02:28PM 41.2106 -81.7567 88° East  Level FlightAware Approximate
02:35PM 41.2075 -81.3175 98° East  Level FlightAware Approximate
02:36PM 41.2006 -81.2552 98° East  Level FlightAware Approximate
02:37PM 41.2000 -81.2500 North  Level FlightAware Approximate
02:38PM 41.2102 -81.2516 North  Level Estimated
02:39PM 41.2102 -81.2516 North  Level Estimated
02:40PM 41.2102 -81.2516 North  Level Estimated
02:41PM 41.2102 -81.2516 North  Level Estimated
02:42PM 41.2102 -81.2516 North  Level Estimated
02:43PM 41.2102 -81.2516 North  Level Estimated
02:44PM 41.2102 -81.2516 North  Level Estimated
02:45PM 41.2102 -81.2516 North  Level Estimated
02:46PM 41.2102 -81.2516 North  Level Estimated
02:47PM 41.2102 -81.2516 North  Level Estimated
02:48PM 41.2102 -81.2516 North  Level Estimated
02:49PM 41.2102 -81.2516 North  Level Estimated